sensor_id;sensor_type;location;lat;lon;timestamp;pressure;altitude;pressure_sealevel;temperature;humidity
50057;BME280;36875;49.468;11.200;2023-03-13T00:01:56;97449.81;;;19.22;39.34
50057;BME280;36875;49.468;11.200;2023-03-13T00:04:21;97440.66;;;19.18;39.17
50057;BME280;36875;49.468;11.200;2023-03-13T00:06:47;97438.91;;;19.22;39.03
50057;BME280;36875;49.468;11.200;2023-03-13T00:09:14;97440.03;;;19.21;39.25
50057;BME280;36875;49.468;11.200;2023-03-13T00:11:41;97423.50;;;19.18;39.04
50057;BME280;36875;49.468;11.200;2023-03-13T00:14:07;97419.66;;;19.19;38.92
50057;BME280;36875;49.468;11.200;2023-03-13T00:16:33;97409.22;;;19.12;39.34
50057;BME280;36875;49.468;11.200;2023-03-13T00:18:59;97406.34;;;19.17;38.99
50057;BME280;36875;49.468;11.200;2023-03-13T00:21:26;97397.50;;;19.12;39.01
50057;BME280;36875;49.468;11.200;2023-03-13T00:23:52;97404.56;;;19.13;38.99
50057;BME280;36875;49.468;11.200;2023-03-13T00:26:19;97397.50;;;19.12;38.92
50057;BME280;36875;49.468;11.200;2023-03-13T00:28:47;97393.16;;;19.11;38.77
50057;BME280;36875;49.468;11.200;2023-03-13T00:31:15;97395.88;;;19.11;38.73
50057;BME280;36875;49.468;11.200;2023-03-13T00:33:42;97382.41;;;19.05;39.21
50057;BME280;36875;49.468;11.200;2023-03-13T00:36:10;97393.47;;;19.09;38.68
50057;BME280;36875;49.468;11.200;2023-03-13T00:38:36;97386.25;;;19.04;39.08
50057;BME280;36875;49.468;11.200;2023-03-13T00:41:02;97383.53;;;19.04;39.13
50057;BME280;36875;49.468;11.200;2023-03-13T00:43:28;97379.19;;;19.03;38.89
50057;BME280;36875;49.468;11.200;2023-03-13T00:45:55;97381.13;;;19.03;38.79
50057;BME280;36875;49.468;11.200;2023-03-13T00:48:21;97374.34;;;19.00;39.09
50057;BME280;36875;49.468;11.200;2023-03-13T00:50:47;97383.38;;;19.01;38.90
50057;BME280;36875;49.468;11.200;2023-03-13T00:53:13;97389.13;;;18.99;38.87
50057;BME280;36875;49.468;11.200;2023-03-13T00:55:38;97398.41;;;18.98;39.02
50057;BME280;36875;49.468;11.200;2023-03-13T00:58:04;97396.84;;;18.97;38.59
50057;BME280;36875;49.468;11.200;2023-03-13T01:00:29;97393.31;;;18.97;38.63
50057;BME280;36875;49.468;11.200;2023-03-13T01:02:56;97388.78;;;18.92;38.34
50057;BME280;36875;49.468;11.200;2023-03-13T01:05:22;97392.78;;;18.95;38.90
50057;BME280;36875;49.468;11.200;2023-03-13T01:07:47;97391.19;;;18.94;38.95
50057;BME280;36875;49.468;11.200;2023-03-13T01:10:13;97376.25;;;18.91;38.90
50057;BME280;36875;49.468;11.200;2023-03-13T01:12:38;97379.81;;;18.92;38.95
50057;BME280;36875;49.468;11.200;2023-03-13T01:15:04;97367.13;;;18.87;38.37
50057;BME280;36875;49.468;11.200;2023-03-13T01:17:30;97366.00;;;18.88;38.90
50057;BME280;36875;49.468;11.200;2023-03-13T01:19:57;97364.38;;;18.87;38.74
50057;BME280;36875;49.468;11.200;2023-03-13T01:22:23;97364.38;;;18.87;38.53
50057;BME280;36875;49.468;11.200;2023-03-13T01:24:48;97362.81;;;18.86;38.35
50057;BME280;36875;49.468;11.200;2023-03-13T01:27:16;97359.59;;;18.84;38.68
50057;BME280;36875;49.468;11.200;2023-03-13T01:29:42;97365.34;;;18.82;38.75
50057;BME280;36875;49.468;11.200;2023-03-13T01:32:07;97354.44;;;18.82;38.62
50057;BME280;36875;49.468;11.200;2023-03-13T01:34:33;97356.34;;;18.82;38.71
50057;BME280;36875;49.468;11.200;2023-03-13T01:37:00;97350.38;;;18.80;38.58
50057;BME280;36875;49.468;11.200;2023-03-13T01:39:26;97349.41;;;18.76;38.63
50057;BME280;36875;49.468;11.200;2023-03-13T01:41:51;97343.34;;;18.79;38.72
50057;BME280;36875;49.468;11.200;2023-03-13T01:44:21;97340.13;;;18.77;38.59
50057;BME280;36875;49.468;11.200;2023-03-13T01:46:47;97342.03;;;18.76;38.25
50057;BME280;36875;49.468;11.200;2023-03-13T01:49:15;97328.25;;;18.73;38.18
50057;BME280;36875;49.468;11.200;2023-03-13T01:51:44;97333.38;;;18.74;38.46
50057;BME280;36875;49.468;11.200;2023-03-13T01:54:14;97338.81;;;18.74;38.44
50057;BME280;36875;49.468;11.200;2023-03-13T01:56:44;97325.50;;;18.73;38.63
50057;BME280;36875;49.468;11.200;2023-03-13T01:59:14;97326.31;;;18.64;38.74
50057;BME280;36875;49.468;11.200;2023-03-13T02:01:43;97344.09;;;18.71;38.63
50057;BME280;36875;49.468;11.200;2023-03-13T02:04:10;97336.25;;;18.69;38.31
50057;BME280;36875;49.468;11.200;2023-03-13T02:06:39;97326.47;;;18.68;38.57
50057;BME280;36875;49.468;11.200;2023-03-13T02:09:09;97313.97;;;18.67;38.11
50057;BME280;36875;49.468;11.200;2023-03-13T02:11:44;97309.94;;;18.64;38.42
50057;BME280;36875;49.468;11.200;2023-03-13T02:14:12;97305.59;;;18.63;38.10
50057;BME280;36875;49.468;11.200;2023-03-13T02:16:38;97305.94;;;18.62;38.19
50057;BME280;36875;49.468;11.200;2023-03-13T02:19:12;97311.06;;;18.63;38.58
50057;BME280;36875;49.468;11.200;2023-03-13T02:21:44;97305.94;;;18.62;38.46
50057;BME280;36875;49.468;11.200;2023-03-13T02:24:18;97301.59;;;18.61;38.31
50057;BME280;36875;49.468;11.200;2023-03-13T02:26:48;97288.59;;;18.58;38.46
50057;BME280;36875;49.468;11.200;2023-03-13T02:29:14;97291.63;;;18.56;38.39
50057;BME280;36875;49.468;11.200;2023-03-13T02:31:43;97297.59;;;18.58;38.44
50057;BME280;36875;49.468;11.200;2023-03-13T02:34:12;97285.09;;;18.57;38.40
50057;BME280;36875;49.468;11.200;2023-03-13T02:36:40;97295.97;;;18.57;38.13
50057;BME280;36875;49.468;11.200;2023-03-13T02:39:06;97284.13;;;18.53;38.17
50057;BME280;36875;49.468;11.200;2023-03-13T02:41:33;97294.72;;;18.55;38.07
50057;BME280;36875;49.468;11.200;2023-03-13T02:44:00;97272.25;;;18.49;38.08
50057;BME280;36875;49.468;11.200;2023-03-13T02:46:26;97276.25;;;18.52;38.49
50057;BME280;36875;49.468;11.200;2023-03-13T02:48:53;97268.41;;;18.50;38.33
50057;BME280;36875;49.468;11.200;2023-03-13T02:51:21;97263.56;;;18.47;38.40
50057;BME280;36875;49.468;11.200;2023-03-13T02:53:49;97261.34;;;18.49;38.03
50057;BME280;36875;49.468;11.200;2023-03-13T02:56:19;97251.72;;;18.43;38.26
50057;BME280;36875;49.468;11.200;2023-03-13T02:58:45;97263.56;;;18.47;38.05
50057;BME280;36875;49.468;11.200;2023-03-13T03:01:12;97249.78;;;18.43;38.12
50057;BME280;36875;49.468;11.200;2023-03-13T03:03:38;97260.34;;;18.45;38.41
50057;BME280;36875;49.468;11.200;2023-03-13T03:06:05;97256.06;;;18.44;38.40
50057;BME280;36875;49.468;11.200;2023-03-13T03:08:31;97259.09;;;18.42;38.02
50057;BME280;36875;49.468;11.200;2023-03-13T03:10:56;97254.75;;;18.41;38.24
50057;BME280;36875;49.468;11.200;2023-03-13T03:13:22;97255.56;;;18.42;38.12
50057;BME280;36875;49.468;11.200;2023-03-13T03:15:47;97244.19;;;18.40;38.10
50057;BME280;36875;49.468;11.200;2023-03-13T03:18:14;97254.25;;;18.39;38.53
50057;BME280;36875;49.468;11.200;2023-03-13T03:20:40;97245.28;;;18.39;38.36
50057;BME280;36875;49.468;11.200;2023-03-13T03:23:05;97245.59;;;18.37;38.35
50057;BME280;36875;49.468;11.200;2023-03-13T03:25:31;97241.28;;;18.36;38.27
50057;BME280;36875;49.468;11.200;2023-03-13T03:27:56;97237.25;;;18.34;38.19
50057;BME280;36875;49.468;11.200;2023-03-13T03:30:21;97249.78;;;18.35;38.44
50057;BME280;36875;49.468;11.200;2023-03-13T03:32:47;97226.38;;;18.34;38.36
50057;BME280;36875;49.468;11.200;2023-03-13T03:35:14;97220.13;;;18.33;37.98
50057;BME280;36875;49.468;11.200;2023-03-13T03:37:39;97227.50;;;18.33;38.17
50057;BME280;36875;49.468;11.200;2023-03-13T03:40:06;97229.41;;;18.32;38.37
50057;BME280;36875;49.468;11.200;2023-03-13T03:42:32;97222.38;;;18.31;38.06
50057;BME280;36875;49.468;11.200;2023-03-13T03:44:57;97221.88;;;18.29;38.00
50057;BME280;36875;49.468;11.200;2023-03-13T03:47:23;97213.53;;;18.25;38.01
50057;BME280;36875;49.468;11.200;2023-03-13T03:49:48;97204.53;;;18.25;38.07
50057;BME280;36875;49.468;11.200;2023-03-13T03:52:15;97217.53;;;18.28;38.28
50057;BME280;36875;49.468;11.200;2023-03-13T03:54:41;97226.03;;;18.26;38.41
50057;BME280;36875;49.468;11.200;2023-03-13T03:57:06;97210.50;;;18.27;37.89
50057;BME280;36875;49.468;11.200;2023-03-13T03:59:32;97212.72;;;18.25;38.09
50057;BME280;36875;49.468;11.200;2023-03-13T04:01:57;97207.59;;;18.23;38.34
50057;BME280;36875;49.468;11.200;2023-03-13T04:04:23;97202.16;;;18.23;38.18
50057;BME280;36875;49.468;11.200;2023-03-13T04:06:49;97201.66;;;18.21;38.06
50057;BME280;36875;49.468;11.200;2023-03-13T04:09:16;97189.78;;;18.17;37.96
50057;BME280;36875;49.468;11.200;2023-03-13T04:11:41;97183.25;;;18.18;37.98
50057;BME280;36875;49.468;11.200;2023-03-13T04:14:07;97182.94;;;18.20;38.12
50057;BME280;36875;49.468;11.200;2023-03-13T04:16:32;97188.69;;;18.18;38.35
50057;BME280;36875;49.468;11.200;2023-03-13T04:18:58;97180.50;;;18.18;38.41
50057;BME280;36875;49.468;11.200;2023-03-13T04:21:23;97182.75;;;18.16;37.89
50057;BME280;36875;49.468;11.200;2023-03-13T04:23:49;97165.44;;;18.12;38.12
50057;BME280;36875;49.468;11.200;2023-03-13T04:26:16;97178.41;;;18.15;38.45
50057;BME280;36875;49.468;11.200;2023-03-13T04:28:41;97164.81;;;18.15;38.07
50057;BME280;36875;49.468;11.200;2023-03-13T04:31:07;97164.81;;;18.15;38.12
50057;BME280;36875;49.468;11.200;2023-03-13T04:33:32;97155.03;;;18.14;38.37
50057;BME280;36875;49.468;11.200;2023-03-13T04:35:58;97147.97;;;18.13;37.98
50057;BME280;36875;49.468;11.200;2023-03-13T04:38:24;97151.03;;;18.11;37.94
50057;BME280;36875;49.468;11.200;2023-03-13T04:40:49;97142.84;;;18.11;38.25
50057;BME280;36875;49.468;11.200;2023-03-13T04:43:16;97131.16;;;18.11;38.07
50057;BME280;36875;49.468;11.200;2023-03-13T04:45:41;97129.53;;;18.10;37.83
50057;BME280;36875;49.468;11.200;2023-03-13T04:48:07;97124.94;;;18.10;37.91
50057;BME280;36875;49.468;11.200;2023-03-13T04:50:32;97138.84;;;18.09;38.04
50057;BME280;36875;49.468;11.200;2023-03-13T04:52:58;97129.06;;;18.08;38.21
50057;BME280;36875;49.468;11.200;2023-03-13T04:55:23;97119.31;;;18.07;38.07
50057;BME280;36875;49.468;11.200;2023-03-13T04:57:49;97123.94;;;18.06;37.80
50057;BME280;36875;49.468;11.200;2023-03-13T05:00:16;97112.25;;;18.06;38.06
50057;BME280;36875;49.468;11.200;2023-03-13T05:02:42;97107.94;;;18.05;38.19
50057;BME280;36875;49.468;11.200;2023-03-13T05:05:08;97136.75;;;18.06;38.26
50057;BME280;36875;49.468;11.200;2023-03-13T05:07:33;97124.59;;;18.03;37.86
50057;BME280;36875;49.468;11.200;2023-03-13T05:09:59;97134.66;;;18.03;38.27
50057;BME280;36875;49.468;11.200;2023-03-13T05:12:24;97134.66;;;18.03;38.29
50057;BME280;36875;49.468;11.200;2023-03-13T05:14:50;97122.19;;;18.02;37.89
50057;BME280;36875;49.468;11.200;2023-03-13T05:17:17;97137.72;;;18.01;38.19
50057;BME280;36875;49.468;11.200;2023-03-13T05:19:45;97131.44;;;18.01;38.30
50057;BME280;36875;49.468;11.200;2023-03-13T05:22:10;97132.59;;;18.00;38.19
50057;BME280;36875;49.468;11.200;2023-03-13T05:24:36;97129.03;;;17.99;37.79
50057;BME280;36875;49.468;11.200;2023-03-13T05:27:02;97124.72;;;17.98;38.09
50057;BME280;36875;49.468;11.200;2023-03-13T05:29:27;97125.84;;;17.97;38.33
50057;BME280;36875;49.468;11.200;2023-03-13T05:31:53;97128.56;;;17.97;38.05
50057;BME280;36875;49.468;11.200;2023-03-13T05:34:19;97117.97;;;17.96;38.14
50057;BME280;36875;49.468;11.200;2023-03-13T05:36:45;97117.97;;;17.96;38.20
50057;BME280;36875;49.468;11.200;2023-03-13T05:39:10;97119.91;;;17.95;38.06
50057;BME280;36875;49.468;11.200;2023-03-13T05:41:36;97112.88;;;17.94;38.21
50057;BME280;36875;49.468;11.200;2023-03-13T05:44:01;97114.78;;;17.94;38.13
50057;BME280;36875;49.468;11.200;2023-03-13T05:46:27;97107.75;;;17.92;38.48
50057;BME280;36875;49.468;11.200;2023-03-13T05:48:52;97096.19;;;17.96;38.38
50057;BME280;36875;49.468;11.200;2023-03-13T05:51:19;97096.72;;;17.98;38.34
50057;BME280;36875;49.468;11.200;2023-03-13T05:53:45;97088.03;;;17.96;38.06
50057;BME280;36875;49.468;11.200;2023-03-13T05:56:10;97087.56;;;17.94;38.35
50057;BME280;36875;49.468;11.200;2023-03-13T05:58:36;97085.97;;;17.92;38.47
50057;BME280;36875;49.468;11.200;2023-03-13T06:01:06;97079.88;;;17.96;38.16
50057;BME280;36875;49.468;11.200;2023-03-13T06:03:31;97076.66;;;17.94;38.30
50057;BME280;36875;49.468;11.200;2023-03-13T06:05:57;97081.03;;;18.03;38.50
50057;BME280;36875;49.468;11.200;2023-03-13T06:08:27;97069.34;;;18.11;38.14
50057;BME280;36875;49.468;11.200;2023-03-13T06:10:53;97068.72;;;18.23;38.09
50057;BME280;36875;49.468;11.200;2023-03-13T06:13:18;97063.09;;;18.28;38.30
50057;BME280;36875;49.468;11.200;2023-03-13T06:15:50;97069.00;;;18.30;38.75
50057;BME280;36875;49.468;11.200;2023-03-13T06:18:15;97072.41;;;18.36;39.83
50057;BME280;36875;49.468;11.200;2023-03-13T06:20:41;97067.25;;;18.52;39.76
50057;BME280;36875;49.468;11.200;2023-03-13T06:23:06;97065.97;;;18.84;39.10
50057;BME280;36875;49.468;11.200;2023-03-13T06:25:34;97059.81;;;19.05;38.31
50057;BME280;36875;49.468;11.200;2023-03-13T06:28:00;97050.31;;;19.20;38.18
50057;BME280;36875;49.468;11.200;2023-03-13T06:30:25;97055.41;;;19.30;38.10
50057;BME280;36875;49.468;11.200;2023-03-13T06:32:52;97069.47;;;18.94;39.28
50057;BME280;36875;49.468;11.200;2023-03-13T06:35:17;97056.66;;;18.85;40.04
50057;BME280;36875;49.468;11.200;2023-03-13T06:37:43;97071.09;;;18.86;40.71
50057;BME280;36875;49.468;11.200;2023-03-13T06:40:11;97067.72;;;18.89;41.01
50057;BME280;36875;49.468;11.200;2023-03-13T06:42:38;97061.16;;;18.81;40.93
50057;BME280;36875;49.468;11.200;2023-03-13T06:45:04;97064.50;;;18.87;41.00
50057;BME280;36875;49.468;11.200;2023-03-13T06:47:30;97054.41;;;18.87;41.14
50057;BME280;36875;49.468;11.200;2023-03-13T06:49:56;97062.09;;;18.94;41.37
50057;BME280;36875;49.468;11.200;2023-03-13T06:52:22;97070.44;;;18.98;41.60
50057;BME280;36875;49.468;11.200;2023-03-13T06:54:47;97057.88;;;19.05;41.74
50057;BME280;36875;49.468;11.200;2023-03-13T06:57:13;97051.47;;;19.10;41.35
50057;BME280;36875;49.468;11.200;2023-03-13T06:59:39;97055.94;;;19.15;41.68
50057;BME280;36875;49.468;11.200;2023-03-13T07:02:05;97050.94;;;19.17;41.31
50057;BME280;36875;49.468;11.200;2023-03-13T07:04:31;97042.75;;;19.17;41.74
50057;BME280;36875;49.468;11.200;2023-03-13T07:06:56;97045.00;;;19.23;41.84
50057;BME280;36875;49.468;11.200;2023-03-13T07:09:22;97051.91;;;19.21;41.46
50057;BME280;36875;49.468;11.200;2023-03-13T07:11:47;97052.25;;;19.11;41.75
50057;BME280;36875;49.468;11.200;2023-03-13T07:14:13;97047.13;;;19.09;42.01
50057;BME280;36875;49.468;11.200;2023-03-13T07:16:40;97042.47;;;19.10;41.63
50057;BME280;36875;49.468;11.200;2023-03-13T07:19:05;97035.91;;;19.11;42.22
50057;BME280;36875;49.468;11.200;2023-03-13T07:21:31;97040.72;;;19.14;42.08
50057;BME280;36875;49.468;11.200;2023-03-13T07:23:56;97034.94;;;19.15;42.19
50057;BME280;36875;49.468;11.200;2023-03-13T07:26:22;97048.56;;;19.15;41.96
50057;BME280;36875;49.468;11.200;2023-03-13T07:28:47;97040.84;;;19.17;41.70
50057;BME280;36875;49.468;11.200;2023-03-13T07:31:15;97041.19;;;19.16;41.62
50057;BME280;36875;49.468;11.200;2023-03-13T07:33:42;97048.22;;;19.17;41.72
50057;BME280;36875;49.468;11.200;2023-03-13T07:36:09;97051.16;;;19.12;41.94
50057;BME280;36875;49.468;11.200;2023-03-13T07:38:35;97049.06;;;19.09;41.73
50057;BME280;36875;49.468;11.200;2023-03-13T07:41:02;97060.91;;;19.13;41.88
50057;BME280;36875;49.468;11.200;2023-03-13T07:43:27;97052.91;;;19.07;41.86
50057;BME280;36875;49.468;11.200;2023-03-13T07:45:57;97047.59;;;19.11;41.76
50057;BME280;36875;49.468;11.200;2023-03-13T07:48:25;97046.44;;;19.59;41.12
50057;BME280;36875;49.468;11.200;2023-03-13T07:50:54;97052.38;;;19.91;40.29
50057;BME280;36875;49.468;11.200;2023-03-13T07:53:20;97044.94;;;20.00;39.58
50057;BME280;36875;49.468;11.200;2023-03-13T07:55:54;97034.75;;;20.10;39.40
50057;BME280;36875;49.468;11.200;2023-03-13T07:58:20;97034.22;;;20.16;39.20
50057;BME280;36875;49.468;11.200;2023-03-13T08:00:46;97022.47;;;20.16;39.32
50057;BME280;36875;49.468;11.200;2023-03-13T08:03:12;97015.84;;;20.26;38.87
50057;BME280;36875;49.468;11.200;2023-03-13T08:05:37;97018.06;;;20.23;38.70
50057;BME280;36875;49.468;11.200;2023-03-13T08:08:04;97013.09;;;20.26;38.89
50057;BME280;36875;49.468;11.200;2023-03-13T08:10:30;97020.59;;;20.29;39.09
50057;BME280;36875;49.468;11.200;2023-03-13T08:12:55;97016.63;;;20.26;38.97
50057;BME280;36875;49.468;11.200;2023-03-13T08:15:21;97017.41;;;20.27;38.75
50057;BME280;36875;49.468;11.200;2023-03-13T08:17:50;97022.88;;;20.27;38.77
50057;BME280;36875;49.468;11.200;2023-03-13T08:20:16;97016.28;;;20.28;38.64
50057;BME280;36875;49.468;11.200;2023-03-13T08:22:43;97014.34;;;20.28;38.46
50057;BME280;36875;49.468;11.200;2023-03-13T08:25:12;97013.91;;;20.26;38.58
50057;BME280;36875;49.468;11.200;2023-03-13T08:27:37;97029.97;;;20.28;38.60
50057;BME280;36875;49.468;11.200;2023-03-13T08:30:04;97027.22;;;20.28;38.64
50057;BME280;36875;49.468;11.200;2023-03-13T08:32:31;97031.06;;;20.27;38.62
50057;BME280;36875;49.468;11.200;2023-03-13T08:34:57;97027.88;;;20.25;38.47
50057;BME280;36875;49.468;11.200;2023-03-13T08:37:22;97019.09;;;20.19;38.44
50057;BME280;36875;49.468;11.200;2023-03-13T08:39:48;97018.44;;;20.22;38.80
50057;BME280;36875;49.468;11.200;2023-03-13T08:42:15;97020.34;;;20.21;38.46
50057;BME280;36875;49.468;11.200;2023-03-13T08:44:41;97021.97;;;20.22;38.48
50057;BME280;36875;49.468;11.200;2023-03-13T08:47:07;97018.44;;;20.22;38.44
50057;BME280;36875;49.468;11.200;2023-03-13T08:49:33;97008.16;;;20.19;38.57
50057;BME280;36875;49.468;11.200;2023-03-13T08:51:58;97012.84;;;20.18;38.53
50057;BME280;36875;49.468;11.200;2023-03-13T08:54:25;97007.38;;;20.18;38.41
50057;BME280;36875;49.468;11.200;2023-03-13T08:56:50;97004.19;;;20.16;38.54
50057;BME280;36875;49.468;11.200;2023-03-13T08:59:17;97008.81;;;20.16;38.53
50057;BME280;36875;49.468;11.200;2023-03-13T09:01:42;97006.41;;;20.14;38.52
50057;BME280;36875;49.468;11.200;2023-03-13T09:04:08;96996.50;;;20.10;38.30
50057;BME280;36875;49.468;11.200;2023-03-13T09:06:37;96994.56;;;20.10;38.32
50057;BME280;36875;49.468;11.200;2023-03-13T09:09:04;97002.44;;;20.12;38.61
50057;BME280;36875;49.468;11.200;2023-03-13T09:11:30;97004.25;;;20.08;38.70
50057;BME280;36875;49.468;11.200;2023-03-13T09:13:56;97005.03;;;20.08;38.80
50057;BME280;36875;49.468;11.200;2023-03-13T09:16:26;97004.56;;;20.06;38.31
50057;BME280;36875;49.468;11.200;2023-03-13T09:18:52;96996.38;;;20.06;38.62
50057;BME280;36875;49.468;11.200;2023-03-13T09:21:20;96987.06;;;20.07;38.68
50057;BME280;36875;49.468;11.200;2023-03-13T09:23:46;96996.38;;;20.06;38.52
50057;BME280;36875;49.468;11.200;2023-03-13T09:26:12;96975.50;;;20.01;38.64
50057;BME280;36875;49.468;11.200;2023-03-13T09:28:38;96970.41;;;20.00;38.30
50057;BME280;36875;49.468;11.200;2023-03-13T09:31:07;96973.94;;;20.00;38.56
50057;BME280;36875;49.468;11.200;2023-03-13T09:33:35;96970.84;;;19.81;39.18
50057;BME280;36875;49.468;11.200;2023-03-13T09:36:00;96978.09;;;19.56;39.76
50057;BME280;36875;49.468;11.200;2023-03-13T09:38:26;96971.28;;;19.41;39.88
50057;BME280;36875;49.468;11.200;2023-03-13T09:40:53;96965.19;;;19.35;39.99
50057;BME280;36875;49.468;11.200;2023-03-13T09:43:24;96965.19;;;19.35;40.05
50057;BME280;36875;49.468;11.200;2023-03-13T09:45:57;96959.72;;;19.35;40.43
50057;BME280;36875;49.468;11.200;2023-03-13T09:48:29;96958.41;;;19.41;40.27
50057;BME280;36875;49.468;11.200;2023-03-13T09:51:02;96960.00;;;19.42;40.33
50057;BME280;36875;49.468;11.200;2023-03-13T09:53:33;96960.47;;;19.44;40.61
50057;BME280;36875;49.468;11.200;2023-03-13T09:56:04;96960.00;;;19.42;40.39
50057;BME280;36875;49.468;11.200;2023-03-13T09:58:38;96953.56;;;19.47;40.43
50057;BME280;36875;49.468;11.200;2023-03-13T10:01:08;96957.88;;;19.48;40.56
50057;BME280;36875;49.468;11.200;2023-03-13T10:03:38;96960.16;;;19.46;40.76
50057;BME280;36875;49.468;11.200;2023-03-13T10:06:13;96946.81;;;19.44;40.73
50057;BME280;36875;49.468;11.200;2023-03-13T10:08:40;96947.66;;;19.45;40.70
50057;BME280;36875;49.468;11.200;2023-03-13T10:11:10;96949.22;;;19.46;40.67
50057;BME280;36875;49.468;11.200;2023-03-13T10:13:40;96956.94;;;19.44;41.24
50057;BME280;36875;49.468;11.200;2023-03-13T10:16:08;96963.56;;;19.43;40.87
50057;BME280;36875;49.468;11.200;2023-03-13T10:18:35;96959.22;;;19.42;41.32
50057;BME280;36875;49.468;11.200;2023-03-13T10:21:06;96964.81;;;19.45;40.93
50057;BME280;36875;49.468;11.200;2023-03-13T10:23:40;96963.19;;;19.44;41.22
50057;BME280;36875;49.468;11.200;2023-03-13T10:26:14;96961.94;;;19.42;40.97
50057;BME280;36875;49.468;11.200;2023-03-13T10:28:41;96958.28;;;19.38;41.20
50057;BME280;36875;49.468;11.200;2023-03-13T10:31:13;96965.47;;;19.42;41.41
50057;BME280;36875;49.468;11.200;2023-03-13T10:33:41;96958.75;;;19.40;41.35
50057;BME280;36875;49.468;11.200;2023-03-13T10:36:09;96959.53;;;19.40;41.28
50057;BME280;36875;49.468;11.200;2023-03-13T10:38:48;96963.41;;;19.39;41.50
50057;BME280;36875;49.468;11.200;2023-03-13T10:41:21;96965.81;;;19.41;41.51
50057;BME280;36875;49.468;11.200;2023-03-13T10:43:50;96968.53;;;19.41;41.20
50057;BME280;36875;49.468;11.200;2023-03-13T10:46:23;96970.91;;;19.42;41.27
50057;BME280;36875;49.468;11.200;2023-03-13T10:48:53;96959.63;;;19.82;40.88
50057;BME280;36875;49.468;11.200;2023-03-13T10:51:20;96968.06;;;20.11;40.00
50057;BME280;36875;49.468;11.200;2023-03-13T10:53:48;96962.78;;;20.27;39.76
50057;BME280;36875;49.468;11.200;2023-03-13T10:56:21;96959.97;;;20.35;39.40
50057;BME280;36875;49.468;11.200;2023-03-13T10:58:50;96951.91;;;20.39;39.54
50057;BME280;36875;49.468;11.200;2023-03-13T11:01:19;96953.16;;;20.41;38.95
50057;BME280;36875;49.468;11.200;2023-03-13T11:03:47;96960.94;;;20.18;39.98
50057;BME280;36875;49.468;11.200;2023-03-13T11:06:24;96965.81;;;19.92;40.46
50057;BME280;36875;49.468;11.200;2023-03-13T11:08:57;96948.59;;;19.70;40.91
50057;BME280;36875;49.468;11.200;2023-03-13T11:11:23;96944.47;;;19.64;41.01
50057;BME280;36875;49.468;11.200;2023-03-13T11:14:06;96953.78;;;19.63;41.11
50057;BME280;36875;49.468;11.200;2023-03-13T11:16:36;96949.25;;;19.67;40.94
50057;BME280;36875;49.468;11.200;2023-03-13T11:19:23;96940.75;;;19.69;40.64
50057;BME280;36875;49.468;11.200;2023-03-13T11:21:59;96933.28;;;19.57;40.87
50057;BME280;36875;49.468;11.200;2023-03-13T11:24:35;96928.50;;;19.54;41.37
50057;BME280;36875;49.468;11.200;2023-03-13T11:27:14;96922.34;;;19.57;41.05
50057;BME280;36875;49.468;11.200;2023-03-13T11:29:50;96935.16;;;19.65;41.17
50057;BME280;36875;49.468;11.200;2023-03-13T11:32:22;96924.25;;;19.65;41.33
50057;BME280;36875;49.468;11.200;2023-03-13T11:34:53;96927.72;;;19.74;41.27
50057;BME280;36875;49.468;11.200;2023-03-13T11:37:22;96914.25;;;19.69;41.68
50057;BME280;36875;49.468;11.200;2023-03-13T11:39:59;96901.72;;;19.68;42.00
50057;BME280;36875;49.468;11.200;2023-03-13T11:42:51;96897.09;;;19.69;42.26
50057;BME280;36875;49.468;11.200;2023-03-13T11:45:37;96904.13;;;19.70;42.22
50057;BME280;36875;49.468;11.200;2023-03-13T11:48:16;96897.88;;;19.69;42.43
50057;BME280;36875;49.468;11.200;2023-03-13T11:50:48;96906.34;;;19.76;42.48
50057;BME280;36875;49.468;11.200;2023-03-13T11:53:32;96911.34;;;19.74;42.63
50057;BME280;36875;49.468;11.200;2023-03-13T11:56:08;96906.53;;;19.71;42.64
50057;BME280;36875;49.468;11.200;2023-03-13T11:58:56;96902.19;;;19.70;42.89
50057;BME280;36875;49.468;11.200;2023-03-13T12:01:26;96911.97;;;19.71;42.79
50057;BME280;36875;49.468;11.200;2023-03-13T12:03:56;96905.28;;;19.69;42.95
50057;BME280;36875;49.468;11.200;2023-03-13T12:06:28;96922.91;;;19.71;43.16
50057;BME280;36875;49.468;11.200;2023-03-13T12:08:55;96911.19;;;19.71;43.17
50057;BME280;36875;49.468;11.200;2023-03-13T12:11:26;96910.53;;;19.74;43.05
50057;BME280;36875;49.468;11.200;2023-03-13T12:13:57;96903.63;;;19.76;43.25
50057;BME280;36875;49.468;11.200;2023-03-13T12:16:31;96900.56;;;19.78;43.27
50057;BME280;36875;49.468;11.200;2023-03-13T12:19:01;96902.47;;;19.77;43.37
50057;BME280;36875;49.468;11.200;2023-03-13T12:21:29;96901.34;;;19.78;43.53
50057;BME280;36875;49.468;11.200;2023-03-13T12:24:02;96895.69;;;19.83;43.53
50057;BME280;36875;49.468;11.200;2023-03-13T12:26:36;96897.75;;;19.87;43.43
50057;BME280;36875;49.468;11.200;2023-03-13T12:29:10;96890.00;;;19.89;43.13
50057;BME280;36875;49.468;11.200;2023-03-13T12:31:41;96875.25;;;19.90;43.15
50057;BME280;36875;49.468;11.200;2023-03-13T12:34:13;96872.31;;;19.95;43.54
50057;BME280;36875;49.468;11.200;2023-03-13T12:36:40;96858.44;;;20.00;43.16
50057;BME280;36875;49.468;11.200;2023-03-13T12:39:17;96848.44;;;20.04;43.18
50057;BME280;36875;49.468;11.200;2023-03-13T12:41:49;96836.63;;;20.12;42.93
50057;BME280;36875;49.468;11.200;2023-03-13T12:44:19;96830.84;;;20.26;43.03
50057;BME280;36875;49.468;11.200;2023-03-13T12:46:46;96823.00;;;20.37;42.75
50057;BME280;36875;49.468;11.200;2023-03-13T12:49:38;96816.75;;;20.49;42.32
50057;BME280;36875;49.468;11.200;2023-03-13T12:52:24;96797.84;;;20.56;42.52
50057;BME280;36875;49.468;11.200;2023-03-13T12:55:05;96788.97;;;20.59;42.22